Time;durP1;ratioP1;P1;durP2;ratioP2;P2;SDS_P1;SDS_P2;PMS_P1;PMS_P2;Temp;Humidity;BMP_temperature;BMP_pressure;BME280_temperature;BME280_humidity;BME280_pressure;Samples;Min_cycle;Max_cycle;Signal;HPM_P1;HPM_P2
2022/01/24 00:02:17;;;;;;;9.02;6.88;;;7.10;84.70;;;;;;5042058;28;20096;-71
2022/01/24 00:04:42;;;;;;;9.30;6.88;;;7.10;84.70;;;;;;5027643;28;20102;-71
2022/01/24 00:07:08;;;;;;;7.93;6.30;;;7.10;84.70;;;;;;5044139;28;20041;-71
2022/01/24 00:09:34;;;;;;;9.35;7.65;;;7.10;84.60;;;;;;5038235;28;20053;-71
2022/01/24 00:12:12;;;;;;;9.05;7.00;;;7.10;84.70;;;;;;5045215;28;20048;-71
2022/01/24 00:14:56;;;;;;;8.82;7.03;;;7.10;84.70;;;;;;5049341;28;20041;-71
2022/01/24 00:28:12;;;;;;;8.40;6.13;;;7.00;84.70;;;;;;5047867;28;20076;-71
2022/01/24 00:30:38;;;;;;;8.35;6.28;;;6.90;84.70;;;;;;5030759;28;20486;-71
2022/01/24 00:33:04;;;;;;;9.60;7.03;;;6.90;84.70;;;;;;5047874;28;20099;-71
2022/01/24 00:35:30;;;;;;;7.28;5.60;;;6.90;84.70;;;;;;5048254;28;20053;-70
2022/01/24 00:37:59;;;;;;;6.68;5.72;;;6.90;84.70;;;;;;5048204;28;20056;-71
2022/01/24 00:40:26;;;;;;;7.95;6.57;;;6.90;84.70;;;;;;5048366;28;20049;-71
2022/01/24 00:42:56;;;;;;;8.48;5.70;;;6.80;84.70;;;;;;5048520;28;20048;-71
2022/01/24 00:55:46;;;;;;;6.18;5.55;;;6.70;85.00;;;;;;5048688;28;20049;-71
2022/01/24 00:58:12;;;;;;;9.48;5.40;;;6.70;84.90;;;;;;5048483;28;20083;-71
2022/01/24 01:00:37;;;;;;;7.32;6.22;;;6.70;84.90;;;;;;5047750;28;20153;-71
2022/01/24 01:03:03;;;;;;;7.63;5.95;;;6.70;84.90;;;;;;5048161;28;20529;-71
2022/01/24 01:18:56;;;;;;;7.10;5.03;;;6.70;84.80;;;;;;5052684;28;20052;-71
2022/01/24 01:21:22;;;;;;;6.20;4.95;;;6.70;84.80;;;;;;5051846;28;20045;-71
2022/01/24 01:23:53;;;;;;;6.28;5.32;;;6.70;84.80;;;;;;5052643;28;20045;-71
2022/01/24 01:26:39;;;;;;;7.18;4.93;;;6.70;84.80;;;;;;5051765;28;20053;-71
2022/01/24 01:29:11;;;;;;;6.72;4.57;;;6.70;84.80;;;;;;5052013;28;20047;-71
2022/01/24 01:31:47;;;;;;;;;;;6.70;84.80;;;;;;5051790;28;20053;-71
2022/01/24 01:34:40;;;;;;;8.43;4.95;;;6.60;84.60;;;;;;5051479;28;19924;-71
2022/01/24 01:56:07;;;;;;;9.95;5.68;;;6.70;84.60;;;;;;5050168;28;20132;-69
2022/01/24 01:58:32;;;;;;;6.38;5.15;;;6.70;84.60;;;;;;5050767;28;20045;-69
2022/01/24 02:01:00;;;;;;;6.22;5.10;;;6.70;84.60;;;;;;5051221;28;20052;-70
2022/01/24 02:03:28;;;;;;;6.13;5.30;;;6.80;84.60;;;;;;5049965;28;20532;-70
2022/01/24 02:05:54;;;;;;;8.30;5.65;;;6.80;84.50;;;;;;5051566;28;20049;-70
2022/01/24 02:08:26;;;;;;;7.15;5.80;;;6.70;84.50;;;;;;5049864;28;20059;-70
2022/01/24 02:10:52;;;;;;;9.13;5.43;;;6.70;84.50;;;;;;5049549;28;20084;-70
2022/01/24 02:13:17;;;;;;;6.88;5.32;;;6.70;84.50;;;;;;5051055;28;20542;-70
2022/01/24 02:15:59;;;;;;;5.82;4.80;;;6.70;84.50;;;;;;5033086;28;20040;-70
2022/01/24 02:23:41;;;;;;;6.35;4.78;;;6.60;84.60;;;;;;5050728;28;20052;-70
2022/01/24 02:26:11;;;;;;;9.45;5.57;;;6.70;84.50;;;;;;5050662;28;20596;-70
2022/01/24 02:28:51;;;;;;;6.28;5.40;;;6.70;84.40;;;;;;5048898;28;20048;-70
2022/01/24 02:33:47;;;;;;;6.70;5.25;;;6.70;84.40;;;;;;5049804;28;20403;-70
2022/01/24 02:36:19;;;;;;;7.15;5.18;;;6.70;84.30;;;;;;5050618;28;20561;-70
2022/01/24 02:49:31;;;;;;;7.30;5.55;;;6.60;84.30;;;;;;5049529;28;20052;-70
2022/01/24 02:52:03;;;;;;;8.07;5.78;;;6.60;84.40;;;;;;5050030;28;20407;-70
2022/01/24 02:54:32;;;;;;;8.07;5.78;;;6.70;84.40;;;;;;5050344;28;20044;-70
2022/01/24 02:56:58;;;;;;;7.75;5.63;;;6.60;84.40;;;;;;5032477;28;20160;-70
2022/01/24 02:59:24;;;;;;;6.38;5.30;;;6.70;84.40;;;;;;5049843;28;20583;-70
2022/01/24 03:01:50;;;;;;;6.55;5.38;;;6.70;84.40;;;;;;5050051;28;20053;-70
2022/01/24 03:04:16;;;;;;;6.43;5.30;;;6.70;84.40;;;;;;5049670;28;20044;-70
2022/01/24 03:06:42;;;;;;;8.15;5.20;;;6.70;84.30;;;;;;5050158;28;20569;-70
2022/01/24 03:09:08;;;;;;;6.45;5.13;;;6.70;84.30;;;;;;5049443;28;20036;-70
2022/01/24 03:14:16;;;;;;;7.60;5.65;;;6.70;84.30;;;;;;5049992;28;20129;-70
2022/01/24 03:16:42;;;;;;;10.20;6.97;;;6.70;84.30;;;;;;5049893;28;20051;-70
2022/01/24 03:19:08;;;;;;;6.07;5.47;;;6.70;84.30;;;;;;5048170;28;20049;-70
2022/01/24 03:21:33;;;;;;;9.23;6.25;;;6.70;84.30;;;;;;5048545;28;20041;-70
2022/01/24 03:23:59;;;;;;;6.78;5.70;;;6.70;84.30;;;;;;5031985;28;20406;-70
2022/01/24 03:26:24;;;;;;;6.97;5.68;;;6.70;84.20;;;;;;5048599;28;20048;-70
2022/01/24 03:28:50;;;;;;;9.13;6.68;;;6.70;84.20;;;;;;5049657;28;20047;-70
2022/01/24 03:31:16;;;;;;;8.25;5.93;;;6.60;84.20;;;;;;5047720;28;20044;-70
2022/01/24 03:33:42;;;;;;;7.55;5.68;;;6.60;84.20;;;;;;5049530;28;20041;-70
2022/01/24 03:36:07;;;;;;;7.07;6.10;;;6.60;84.20;;;;;;5049841;28;20452;-70
2022/01/24 03:38:33;;;;;;;9.18;5.72;;;6.60;84.30;;;;;;5047777;28;20076;-70
2022/01/24 03:40:59;;;;;;;8.23;6.07;;;6.60;84.30;;;;;;5048935;28;20044;-70
2022/01/24 03:43:24;;;;;;;9.80;6.65;;;6.60;84.40;;;;;;5031854;28;20045;-70
2022/01/24 03:46:09;;;;;;;8.23;6.25;;;6.60;84.30;;;;;;5048572;28;20037;-70
2022/01/24 03:48:41;;;;;;;8.52;7.10;;;6.60;84.40;;;;;;5048578;28;20052;-70
2022/01/24 03:51:07;;;;;;;10.45;5.78;;;6.60;84.40;;;;;;5030552;28;20052;-70
2022/01/24 03:53:33;;;;;;;11.20;6.57;;;6.70;84.50;;;;;;5049672;28;20076;-70
2022/01/24 03:55:59;;;;;;;9.18;6.18;;;6.60;84.50;;;;;;5049079;28;20045;-70
2022/01/24 03:58:25;;;;;;;7.55;5.90;;;6.70;84.50;;;;;;5049703;28;20037;-70
2022/01/24 04:00:50;;;;;;;8.02;6.00;;;6.70;84.50;;;;;;5048091;28;20110;-70
2022/01/24 04:03:16;;;;;;;8.35;6.38;;;6.60;84.50;;;;;;5049460;28;20509;-70
2022/01/24 04:05:42;;;;;;;8.20;6.72;;;6.60;84.50;;;;;;5048821;28;20405;-70
2022/01/24 04:08:08;;;;;;;9.05;6.65;;;6.70;84.60;;;;;;5048300;28;20401;-70
2022/01/24 04:10:41;;;;;;;8.82;6.65;;;6.70;84.50;;;;;;5048598;28;20529;-70
2022/01/24 04:21:28;;;;;;;8.93;6.68;;;6.70;84.60;;;;;;5049076;28;20157;-70
2022/01/24 04:24:06;;;;;;;8.00;6.07;;;6.70;84.60;;;;;;5048574;28;20516;-70
2022/01/24 04:26:33;;;;;;;11.20;6.55;;;6.70;84.60;;;;;;5048929;28;20101;-70
2022/01/24 04:28:59;;;;;;;9.40;7.30;;;6.60;84.50;;;;;;5048817;28;20531;-70
2022/01/24 04:31:25;;;;;;;8.65;6.70;;;6.60;84.60;;;;;;5048419;28;20087;-70
2022/01/24 04:33:51;;;;;;;10.73;7.93;;;6.60;84.50;;;;;;5047964;28;20045;-70
2022/01/24 04:36:18;;;;;;;9.82;7.00;;;6.60;84.60;;;;;;5048737;28;20128;-70
2022/01/24 04:38:45;;;;;;;9.65;6.70;;;6.60;84.60;;;;;;5047085;28;20543;-70
2022/01/24 04:41:19;;;;;;;10.40;7.32;;;6.60;84.70;;;;;;5049001;28;20630;-70
2022/01/24 04:46:18;;;;;;;9.65;6.65;;;6.60;84.70;;;;;;5047308;28;20063;-70
2022/01/24 04:56:57;;;;;;;8.32;6.68;;;6.60;84.70;;;;;;5066983;28;20056;-70
2022/01/24 04:59:23;;;;;;;9.98;7.40;;;6.60;84.90;;;;;;5051545;28;20041;-70
2022/01/24 05:01:49;;;;;;;11.48;7.85;;;6.60;84.90;;;;;;5051389;28;20037;-70
2022/01/24 05:04:14;;;;;;;10.35;7.28;;;6.60;84.80;;;;;;5052212;28;20064;-70
2022/01/24 05:06:40;;;;;;;9.63;7.10;;;6.60;84.80;;;;;;5052281;28;20098;-70
2022/01/24 05:09:06;;;;;;;9.77;7.70;;;6.60;84.80;;;;;;5052556;28;20130;-70
2022/01/24 05:11:55;;;;;;;13.25;7.85;;;6.60;84.70;;;;;;5051989;28;20059;-70
2022/01/24 05:25:18;;;;;;;11.23;8.35;;;6.60;84.60;;;;;;5051704;28;20501;-70
2022/01/24 05:27:44;;;;;;;9.90;7.28;;;6.60;84.50;;;;;;5033739;28;20043;-70
2022/01/24 05:30:10;;;;;;;11.18;7.95;;;6.60;84.40;;;;;;5070562;28;20052;-70
2022/01/24 05:32:36;;;;;;;10.90;8.02;;;6.60;84.40;;;;;;5072527;28;20045;-70
2022/01/24 05:35:02;;;;;;;12.55;9.02;;;6.60;84.40;;;;;;5064213;28;20122;-70
2022/01/24 05:37:29;;;;;;;14.88;8.77;;;6.60;84.40;;;;;;5050535;28;20072;-70
2022/01/24 05:39:55;;;;;;;15.02;9.48;;;6.60;84.10;;;;;;5049776;28;20187;-70
2022/01/24 05:42:21;;;;;;;13.65;9.65;;;6.70;84.10;;;;;;5050034;28;20143;-70
2022/01/24 05:44:50;;;;;;;15.02;9.38;;;6.70;84.00;;;;;;5051187;28;20056;-70
2022/01/24 05:47:16;;;;;;;12.30;9.40;;;6.70;83.90;;;;;;5051051;28;20052;-70
2022/01/24 05:49:42;;;;;;;10.93;8.63;;;6.70;83.60;;;;;;5049723;28;20692;-70
2022/01/24 05:52:09;;;;;;;11.35;8.52;;;6.60;83.40;;;;;;5050888;28;20182;-70
2022/01/24 05:54:38;;;;;;;12.60;9.63;;;6.70;83.40;;;;;;5051439;28;20589;-70
2022/01/24 05:57:05;;;;;;;12.45;9.00;;;6.70;83.30;;;;;;5051535;28;20156;-70
2022/01/24 05:59:31;;;;;;;13.23;9.02;;;6.70;83.10;;;;;;5051557;28;20053;-70
2022/01/24 06:01:57;;;;;;;12.73;8.77;;;6.60;83.10;;;;;;5049897;28;20129;-70
2022/01/24 06:04:22;;;;;;;12.05;8.90;;;6.70;82.80;;;;;;5050587;28;20037;-70
2022/01/24 06:06:48;;;;;;;13.40;9.50;;;6.60;83.00;;;;;;5050430;28;20049;-69
2022/01/24 06:09:13;;;;;;;12.75;9.15;;;6.60;83.00;;;;;;5051152;28;20057;-70
2022/01/24 06:11:39;;;;;;;13.40;8.90;;;6.60;82.90;;;;;;5050340;28;20040;-70
2022/01/24 06:14:05;;;;;;;11.15;8.10;;;6.70;82.90;;;;;;5051261;28;20040;-70
2022/01/24 06:16:31;;;;;;;15.23;9.23;;;6.70;82.80;;;;;;5026017;28;20341;-70
2022/01/24 06:18:56;;;;;;;15.50;10.10;;;6.70;82.70;;;;;;5051425;28;20147;-70
2022/01/24 06:21:22;;;;;;;14.68;9.10;;;6.70;82.60;;;;;;5050186;28;20044;-70
2022/01/24 06:23:48;;;;;;;13.23;8.85;;;6.70;82.50;;;;;;5050393;28;20049;-70
2022/01/24 06:26:14;;;;;;;15.63;8.98;;;6.70;82.40;;;;;;5048904;28;20047;-70
2022/01/24 06:28:39;;;;;;;13.73;8.23;;;6.70;82.30;;;;;;5051009;28;20045;-70
2022/01/24 06:31:06;;;;;;;11.88;8.07;;;6.70;82.10;;;;;;5032087;28;20076;-70
2022/01/24 06:33:32;;;;;;;13.80;9.60;;;6.70;81.80;;;;;;5050461;28;20068;-70
2022/01/24 06:35:57;;;;;;;11.02;8.05;;;6.80;81.60;;;;;;5050751;28;20041;-70
2022/01/24 06:38:23;;;;;;;12.13;8.27;;;6.80;81.80;;;;;;5050447;28;20524;-70
2022/01/24 06:40:49;;;;;;;13.15;9.00;;;6.70;81.70;;;;;;5050057;28;20110;-70
2022/01/24 06:43:15;;;;;;;15.05;9.48;;;6.80;81.70;;;;;;5050565;28;20106;-70
2022/01/24 06:45:42;;;;;;;13.80;10.50;;;6.80;81.70;;;;;;5049678;28;20041;-70
2022/01/24 06:48:07;;;;;;;13.18;8.93;;;6.80;81.60;;;;;;5060461;28;20052;-70
2022/01/24 06:50:33;;;;;;;14.52;9.93;;;6.80;81.60;;;;;;5068587;28;20481;-70
2022/01/24 06:52:58;;;;;;;13.45;9.10;;;6.70;81.60;;;;;;5052040;28;20049;-70
2022/01/24 06:55:24;;;;;;;13.45;9.82;;;6.70;81.60;;;;;;5065070;28;20459;-70
2022/01/24 06:57:50;;;;;;;14.57;10.02;;;6.80;81.60;;;;;;5053508;28;20083;-70
2022/01/24 07:00:16;;;;;;;13.90;9.63;;;6.80;81.50;;;;;;5064301;28;20053;-69
2022/01/24 07:02:41;;;;;;;15.90;9.70;;;6.70;81.50;;;;;;5049926;28;20053;-69
2022/01/24 07:05:07;;;;;;;16.50;10.80;;;6.70;81.40;;;;;;5061286;28;20481;-70
2022/01/24 07:07:33;;;;;;;18.80;10.45;;;6.70;80.90;;;;;;5050509;28;20053;-69
2022/01/24 07:10:00;;;;;;;14.80;10.45;;;6.70;81.10;;;;;;5052360;28;20044;-70
2022/01/24 07:12:26;;;;;;;15.63;9.95;;;6.70;81.10;;;;;;5050463;28;20045;-69
2022/01/24 07:14:53;;;;;;;16.13;10.30;;;6.70;81.20;;;;;;5051177;28;20041;-69
2022/01/24 07:19:50;;;;;;;14.90;9.82;;;6.80;81.20;;;;;;5050012;28;20053;-71
2022/01/24 07:22:15;;;;;;;18.35;11.75;;;6.80;81.20;;;;;;5050139;28;20102;-69
2022/01/24 07:24:42;;;;;;;16.95;10.95;;;6.80;81.20;;;;;;5050445;28;20482;-71
2022/01/24 07:27:08;;;;;;;14.23;11.10;;;6.70;81.20;;;;;;5049545;28;20088;-70
2022/01/24 07:29:34;;;;;;;18.42;11.88;;;6.70;81.10;;;;;;5050001;28;20084;-70
2022/01/24 07:32:00;;;;;;;17.60;11.57;;;6.80;81.10;;;;;;5047621;28;20517;-70
2022/01/24 07:34:26;;;;;;;20.00;11.50;;;6.70;81.00;;;;;;5044543;28;20037;-70
2022/01/24 07:36:51;;;;;;;17.65;12.07;;;6.80;80.90;;;;;;5048585;28;20461;-70
2022/01/24 07:39:18;;;;;;;21.83;12.05;;;6.80;80.80;;;;;;5064400;28;20127;-70
2022/01/24 07:41:46;;;;;;;18.75;13.02;;;6.70;80.80;;;;;;5058360;28;20118;-69
2022/01/24 07:44:13;;;;;;;22.27;12.82;;;6.70;80.60;;;;;;5049862;28;20049;-69
2022/01/24 07:46:39;;;;;;;18.58;12.63;;;6.70;80.50;;;;;;5037493;28;20057;-70
2022/01/24 07:49:07;;;;;;;18.75;12.60;;;6.70;80.40;;;;;;5029797;28;20037;-70
2022/01/24 07:51:34;;;;;;;21.85;13.68;;;6.70;79.80;;;;;;5042807;28;20041;-70
2022/01/24 07:54:00;;;;;;;19.10;13.02;;;6.70;80.00;;;;;;5049466;28;20136;-70
2022/01/24 07:56:25;;;;;;;17.92;12.85;;;6.70;80.10;;;;;;5049170;28;20570;-70
2022/01/24 07:58:51;;;;;;;19.17;13.52;;;6.70;80.00;;;;;;5048597;28;20099;-70
2022/01/24 08:01:19;;;;;;;21.25;14.43;;;6.70;80.20;;;;;;5045947;28;20398;-70
2022/01/24 08:03:45;;;;;;;18.83;12.40;;;6.80;80.20;;;;;;5049055;28;20513;-70
2022/01/24 08:06:11;;;;;;;19.88;13.43;;;6.80;80.10;;;;;;5047750;28;20043;-70
2022/01/24 08:08:37;;;;;;;19.50;12.93;;;6.80;80.10;;;;;;5064091;28;20041;-69
2022/01/24 08:11:03;;;;;;;21.33;13.05;;;6.80;80.10;;;;;;5048750;28;20045;-69
2022/01/24 08:13:28;;;;;;;22.33;14.20;;;6.80;80.00;;;;;;5047638;28;20045;-69
2022/01/24 08:15:54;;;;;;;20.40;13.55;;;6.80;79.90;;;;;;5048792;28;20043;-69
2022/01/24 08:18:19;;;;;;;19.67;13.98;;;6.80;79.90;;;;;;5048606;28;20452;-69
2022/01/24 08:20:45;;;;;;;18.17;12.95;;;6.80;79.70;;;;;;5046268;28;20037;-69
2022/01/24 08:23:12;;;;;;;20.92;13.73;;;6.80;79.70;;;;;;5047712;28;20048;-69
2022/01/24 08:25:38;;;;;;;20.48;13.98;;;6.80;79.70;;;;;;5044535;28;20116;-68
2022/01/24 08:28:04;;;;;;;22.42;15.45;;;6.70;79.60;;;;;;5046938;28;20119;-68
2022/01/24 08:30:30;;;;;;;22.10;15.27;;;6.80;79.40;;;;;;5048225;28;20033;-68
2022/01/24 08:32:56;;;;;;;21.17;13.90;;;6.70;79.30;;;;;;5043092;28;20045;-69
2022/01/24 08:35:22;;;;;;;21.30;14.35;;;6.70;79.30;;;;;;5047965;28;20033;-69
2022/01/24 08:37:48;;;;;;;21.50;14.82;;;6.70;79.30;;;;;;5031561;28;20521;-68
2022/01/24 08:40:25;;;;;;;23.05;15.13;;;6.70;79.30;;;;;;5049132;28;20037;-68
2022/01/24 08:43:03;;;;;;;19.83;14.70;;;6.70;79.40;;;;;;5048986;28;20051;-68
2022/01/24 08:45:50;;;;;;;19.67;14.75;;;6.80;79.30;;;;;;5047319;28;20482;-69
2022/01/24 08:48:20;;;;;;;21.48;13.80;;;6.80;79.50;;;;;;5043000;28;20045;-70
2022/01/24 08:50:48;;;;;;;21.73;15.57;;;6.80;79.40;;;;;;5048620;28;20044;-68
2022/01/24 08:53:14;;;;;;;22.73;14.90;;;6.80;79.10;;;;;;5048886;28;20037;-68
2022/01/24 08:55:40;;;;;;;25.13;15.60;;;6.80;79.10;;;;;;5048936;28;20056;-68
2022/01/24 08:58:08;;;;;;;23.85;15.23;;;6.80;79.10;;;;;;5048353;28;20106;-67
2022/01/24 09:00:35;;;;;;;24.60;16.23;;;6.80;79.20;;;;;;5047721;28;20405;-67
2022/01/24 09:03:00;;;;;;;23.13;16.15;;;6.80;79.10;;;;;;5046683;28;20494;-67
2022/01/24 09:05:27;;;;;;;25.58;15.18;;;6.90;79.00;;;;;;5048017;28;20041;-67
2022/01/24 09:07:54;;;;;;;23.50;15.60;;;6.90;79.00;;;;;;5064300;28;20493;-67
2022/01/24 09:10:23;;;;;;;21.40;15.07;;;6.90;78.80;;;;;;5047766;28;20052;-67
2022/01/24 09:12:49;;;;;;;25.10;15.10;;;6.90;78.90;;;;;;5047725;28;20064;-67
2022/01/24 09:15:15;;;;;;;24.85;16.08;;;6.90;78.80;;;;;;5048815;28;20045;-67
2022/01/24 09:17:43;;;;;;;26.08;15.18;;;6.80;77.90;;;;;;5047244;28;20036;-67
2022/01/24 09:20:09;;;;;;;24.70;15.68;;;6.90;78.50;;;;;;5047917;28;20052;-67
2022/01/24 09:22:35;;;;;;;22.10;16.45;;;6.90;78.40;;;;;;5048598;28;20049;-67
2022/01/24 09:25:02;;;;;;;24.55;17.13;;;6.80;78.50;;;;;;5048100;28;20067;-67
2022/01/24 09:27:30;;;;;;;24.15;15.65;;;6.90;78.60;;;;;;5046882;28;20243;-67
2022/01/24 09:29:56;;;;;;;24.58;15.63;;;6.90;78.70;;;;;;5030005;28;20057;-68
2022/01/24 09:32:21;;;;;;;24.67;15.30;;;6.90;78.60;;;;;;5048299;28;20094;-70
2022/01/24 09:34:47;;;;;;;22.45;15.82;;;6.90;78.70;;;;;;5048488;28;20587;-69
2022/01/24 09:37:13;;;;;;;29.50;15.32;;;6.90;78.40;;;;;;5049179;28;20077;-68
2022/01/24 09:39:38;;;;;;;22.58;14.70;;;6.90;78.50;;;;;;5052681;28;20269;-69
2022/01/24 09:42:06;;;;;;;25.20;15.27;;;6.90;78.70;;;;;;5052176;28;20055;-69
2022/01/24 09:44:33;;;;;;;26.00;17.20;;;6.90;78.70;;;;;;5050617;28;20080;-69
2022/01/24 09:46:59;;;;;;;20.77;14.70;;;6.90;78.60;;;;;;5050670;28;20099;-68
2022/01/24 09:49:24;;;;;;;23.48;14.55;;;6.90;78.50;;;;;;5051972;28;20040;-68
2022/01/24 09:51:50;;;;;;;21.27;15.07;;;6.90;78.60;;;;;;5051701;28;20072;-68
2022/01/24 09:54:16;;;;;;;24.27;15.80;;;6.90;78.70;;;;;;5050111;28;20045;-68
2022/01/24 09:56:42;;;;;;;22.90;15.45;;;7.00;78.90;;;;;;5051890;28;20117;-68
2022/01/24 09:59:08;;;;;;;23.20;16.05;;;7.00;78.90;;;;;;5051377;28;20116;-68
2022/01/24 10:01:34;;;;;;;23.60;15.50;;;7.00;78.80;;;;;;5051510;28;20055;-68
2022/01/24 10:04:20;;;;;;;22.58;15.30;;;7.00;78.60;;;;;;5050825;28;20490;-68
2022/01/24 10:07:06;;;;;;;23.17;15.75;;;7.00;78.30;;;;;;5050312;28;20051;-68
2022/01/24 10:09:54;;;;;;;22.40;15.15;;;7.00;78.40;;;;;;5051678;28;20088;-68
2022/01/24 10:16:24;;;;;;;25.50;15.93;;;7.10;78.50;;;;;;5050626;28;20132;-68
2022/01/24 10:18:02;;;;;;;26.30;15.13;;;7.10;78.80;;;;;;5048828;28;20048;-68
2022/01/24 10:20:31;;;;;;;19.70;14.18;;;7.10;78.70;;;;;;5051361;28;20037;-68
2022/01/24 10:23:05;;;;;;;23.10;16.73;;;7.20;78.30;;;;;;5050950;28;20045;-68
2022/01/24 10:25:31;;;;;;;24.92;16.05;;;7.20;78.50;;;;;;5031577;28;20106;-68
2022/01/24 10:28:05;;;;;;;22.92;15.52;;;7.20;78.40;;;;;;5037678;28;20473;-68
2022/01/24 10:30:32;;;;;;;22.10;15.35;;;7.20;78.20;;;;;;5031493;28;20077;-68
2022/01/24 10:33:00;;;;;;;19.80;14.50;;;7.20;78.00;;;;;;5040751;28;20033;-68
2022/01/24 10:35:28;;;;;;;23.05;16.35;;;7.20;78.10;;;;;;5050167;28;20401;-68
2022/01/24 10:38:19;;;;;;;22.50;15.30;;;7.20;78.00;;;;;;5050421;28;20037;-68
2022/01/24 10:43:29;;;;;;;22.38;14.75;;;7.20;77.80;;;;;;5050791;28;20502;-68
2022/01/24 10:45:57;;;;;;;25.27;14.98;;;7.20;78.40;;;;;;5048374;28;20060;-67
2022/01/24 10:48:35;;;;;;;19.98;14.02;;;7.20;78.00;;;;;;5043736;28;20294;-68
2022/01/24 10:51:11;;;;;;;23.67;15.57;;;7.20;77.70;;;;;;5029157;28;20045;-68
2022/01/24 10:53:45;;;;;;;25.52;15.85;;;7.20;77.70;;;;;;5050231;28;20043;-67
2022/01/24 10:56:29;;;;;;;21.20;14.75;;;7.20;77.70;;;;;;5049063;28;20572;-67
2022/01/24 10:59:21;;;;;;;23.75;15.82;;;7.20;77.40;;;;;;5050422;28;20084;-67
2022/01/24 11:01:52;;;;;;;20.38;13.52;;;7.20;77.50;;;;;;5049762;28;20060;-68
2022/01/24 11:04:19;;;;;;;23.08;15.73;;;7.10;77.80;;;;;;5048324;28;20091;-68
2022/01/24 11:06:47;;;;;;;21.02;14.50;;;7.10;78.00;;;;;;5049423;28;20075;-69
2022/01/24 11:09:27;;;;;;;23.30;15.35;;;7.10;77.40;;;;;;5049821;28;20525;-68
2022/01/24 11:12:10;;;;;;;21.25;15.05;;;7.10;77.10;;;;;;5049417;28;20451;-68
2022/01/24 11:14:41;;;;;;;24.30;15.32;;;7.10;77.10;;;;;;5045177;28;20029;-68
2022/01/24 11:17:09;;;;;;;21.90;14.52;;;7.10;77.20;;;;;;5049373;28;20072;-69
2022/01/24 11:19:45;;;;;;;25.27;15.55;;;7.10;77.10;;;;;;5048943;28;20055;-69
2022/01/24 11:22:19;;;;;;;24.55;16.17;;;7.10;77.10;;;;;;5039478;28;20052;-69
2022/01/24 11:25:00;;;;;;;25.00;15.43;;;7.20;77.20;;;;;;5049324;28;20048;-69
2022/01/24 11:27:26;;;;;;;25.40;15.05;;;7.20;77.30;;;;;;5048545;28;20049;-69
2022/01/24 11:29:55;;;;;;;20.95;14.77;;;7.20;77.30;;;;;;5048712;28;20405;-69
2022/01/24 11:32:25;;;;;;;28.55;15.93;;;7.20;77.20;;;;;;5050453;28;20047;-69
2022/01/24 11:34:54;;;;;;;23.48;15.07;;;7.20;77.00;;;;;;5048590;28;20049;-69
2022/01/24 11:37:41;;;;;;;21.92;15.73;;;7.20;77.10;;;;;;5063020;28;20036;-69
2022/01/24 11:40:14;;;;;;;25.13;16.10;;;7.30;77.30;;;;;;5066332;28;20055;-69
2022/01/24 11:42:43;;;;;;;27.25;14.73;;;7.20;77.40;;;;;;5050874;28;20049;-69
2022/01/24 11:45:14;;;;;;;25.85;16.95;;;7.30;77.30;;;;;;5049658;28;20045;-69
2022/01/24 11:47:41;;;;;;;22.95;15.30;;;7.30;77.30;;;;;;5048470;28;20049;-69
2022/01/24 11:50:31;;;;;;;22.20;14.52;;;7.30;77.20;;;;;;5030937;28;20045;-69
2022/01/24 11:52:58;;;;;;;28.17;16.17;;;7.30;76.40;;;;;;5038167;28;20044;-69
2022/01/24 11:55:35;;;;;;;28.63;16.60;;;7.20;76.70;;;;;;5030482;28;20048;-69
2022/01/24 11:58:04;;;;;;;29.85;17.45;;;7.20;76.30;;;;;;5056055;28;20049;-69
2022/01/24 12:00:38;;;;;;;26.38;15.63;;;7.10;76.40;;;;;;5041425;28;20052;-69
2022/01/24 12:03:17;;;;;;;26.88;16.58;;;7.10;76.40;;;;;;5048974;28;20114;-69
2022/01/24 12:05:48;;;;;;;27.52;16.35;;;7.10;76.20;;;;;;5048537;28;20065;-69
2022/01/24 12:08:29;;;;;;;23.40;14.82;;;7.10;76.20;;;;;;5046529;28;20041;-69
2022/01/24 12:10:58;;;;;;;26.00;15.93;;;7.20;76.20;;;;;;5048077;28;20307;-69
2022/01/24 12:13:35;;;;;;;24.30;15.73;;;7.10;75.90;;;;;;5048639;28;20558;-69
2022/01/24 12:16:11;;;;;;;24.77;16.13;;;7.00;75.20;;;;;;5039004;28;20044;-69
2022/01/24 12:18:37;;;;;;;26.77;16.33;;;7.10;76.00;;;;;;5049035;28;20040;-69
2022/01/24 12:21:05;;;;;;;26.00;16.65;;;7.10;76.10;;;;;;5048511;28;20048;-69
2022/01/24 12:23:31;;;;;;;24.50;15.57;;;7.10;75.80;;;;;;5042401;28;20417;-69
2022/01/24 12:26:14;;;;;;;23.38;15.18;;;7.10;75.90;;;;;;5048260;28;20063;-69
2022/01/24 12:28:42;;;;;;;28.30;16.65;;;7.10;76.00;;;;;;5048715;28;20041;-69
2022/01/24 12:31:27;;;;;;;28.67;17.58;;;7.10;76.10;;;;;;5049285;28;20044;-69
2022/01/24 12:33:53;;;;;;;23.45;15.85;;;7.20;75.70;;;;;;5047856;28;20131;-69
2022/01/24 12:36:39;;;;;;;26.48;18.20;;;7.10;75.50;;;;;;5030666;28;20234;-69
2022/01/24 12:39:27;;;;;;;23.95;15.65;;;7.20;75.30;;;;;;5038967;28;20056;-69
2022/01/24 12:41:58;;;;;;;25.08;16.25;;;7.20;75.50;;;;;;5030218;28;20045;-69
2022/01/24 12:47:12;;;;;;;28.77;17.40;;;7.20;75.70;;;;;;5041763;28;20041;-69
2022/01/24 12:49:40;;;;;;;28.48;16.73;;;7.10;75.30;;;;;;5048837;28;20041;-69
2022/01/24 12:52:08;;;;;;;29.23;19.30;;;7.10;75.30;;;;;;5048583;28;20053;-69
2022/01/24 12:54:43;;;;;;;28.02;17.95;;;7.10;75.00;;;;;;5048027;28;20044;-69
2022/01/24 12:57:14;;;;;;;27.17;17.52;;;7.10;75.10;;;;;;5048430;28;20116;-68
2022/01/24 12:59:58;;;;;;;31.52;18.85;;;7.10;74.60;;;;;;5048227;28;20048;-70
2022/01/24 13:02:27;;;;;;;26.27;16.65;;;7.30;77.50;;;;;;5047891;28;20049;-70
2022/01/24 13:05:01;;;;;;;27.35;17.67;;;7.30;75.90;;;;;;5030685;28;20053;-70
2022/01/24 13:07:26;;;;;;;27.30;17.40;;;7.30;75.00;;;;;;5047494;28;20321;-70
2022/01/24 13:10:08;;;;;;;29.73;18.45;;;7.20;74.80;;;;;;5049233;28;20571;-70
2022/01/24 13:12:35;;;;;;;28.05;17.25;;;7.10;73.90;;;;;;5031091;28;20047;-70
2022/01/24 13:15:05;;;;;;;33.83;19.45;;;7.00;73.80;;;;;;5050595;28;20053;-70
2022/01/24 13:20:40;;;;;;;28.38;17.88;;;7.00;75.10;;;;;;5052633;28;20053;-70
2022/01/24 13:23:10;;;;;;;27.38;16.83;;;7.00;75.00;;;;;;5051950;28;20136;-69
2022/01/24 13:25:40;;;;;;;27.38;18.10;;;7.00;75.00;;;;;;5051304;28;20076;-70
2022/01/24 13:28:09;;;;;;;32.58;17.35;;;7.00;75.10;;;;;;5043311;28;20049;-70
2022/01/24 13:30:41;;;;;;;29.35;18.67;;;7.00;75.40;;;;;;5034358;28;20045;-69
2022/01/24 13:33:08;;;;;;;28.73;18.38;;;7.20;78.70;;;;;;5050657;28;20041;-69
2022/01/24 13:35:38;;;;;;;27.23;17.65;;;7.10;76.20;;;;;;5043896;28;20099;-69
2022/01/24 13:38:11;;;;;;;27.20;16.85;;;7.10;75.20;;;;;;5049818;28;20529;-69
2022/01/24 13:41:00;;;;;;;29.13;18.58;;;7.10;75.30;;;;;;5051726;28;20049;-70
2022/01/24 13:43:33;;;;;;;30.08;19.85;;;7.00;74.90;;;;;;5049655;28;20053;-71
2022/01/24 13:46:00;;;;;;;28.45;17.73;;;6.90;74.50;;;;;;5052082;28;20332;-69
2022/01/24 13:48:26;;;;;;;30.08;18.55;;;6.90;74.90;;;;;;5056385;28;20047;-71
2022/01/24 13:50:54;;;;;;;26.73;17.98;;;6.90;75.30;;;;;;5058867;28;20037;-69
2022/01/24 13:53:42;;;;;;;30.10;18.92;;;6.90;75.00;;;;;;5050446;28;20421;-70
2022/01/24 13:56:33;;;;;;;35.92;20.92;;;7.00;75.00;;;;;;5051862;28;20041;-70
2022/01/24 13:59:15;;;;;;;31.33;19.00;;;6.90;74.30;;;;;;5050814;28;20045;-70
2022/01/24 14:02:04;;;;;;;32.15;18.98;;;6.80;75.00;;;;;;5049034;28;20332;-70
2022/01/24 14:04:37;;;;;;;28.95;19.30;;;6.80;74.90;;;;;;5050081;28;20143;-70
2022/01/24 14:07:11;;;;;;;31.35;19.13;;;6.80;75.00;;;;;;5050653;28;20729;-70
2022/01/24 14:10:02;;;;;;;31.58;18.77;;;6.80;75.10;;;;;;5049400;28;20048;-70
2022/01/24 14:12:46;;;;;;;31.98;20.02;;;6.90;75.30;;;;;;5043238;28;20115;-70
2022/01/24 14:15:23;;;;;;;34.03;20.48;;;6.90;75.40;;;;;;5050056;28;20040;-71
2022/01/24 14:20:37;;;;;;;32.38;19.80;;;6.90;75.20;;;;;;5047032;28;20410;-72
2022/01/24 14:23:03;;;;;;;34.47;19.40;;;6.90;75.20;;;;;;5053127;28;20044;-72
2022/01/24 14:25:32;;;;;;;31.33;19.95;;;6.90;75.40;;;;;;5046896;28;20405;-72
2022/01/24 14:27:59;;;;;;;32.53;20.65;;;6.90;75.40;;;;;;5053044;28;20076;-71
2022/01/24 14:30:26;;;;;;;31.23;20.42;;;6.80;75.50;;;;;;5049519;28;20048;-72
2022/01/24 14:33:03;;;;;;;36.85;23.10;;;6.80;75.50;;;;;;5045923;28;20056;-72
2022/01/24 14:35:37;;;;;;;34.00;21.48;;;6.80;75.70;;;;;;5050633;28;20082;-72
2022/01/24 14:38:03;;;;;;;33.63;21.13;;;6.70;75.90;;;;;;5051365;28;20612;-73
2022/01/24 14:40:46;;;;;;;38.28;21.40;;;6.80;76.00;;;;;;5054848;28;20049;-72
2022/01/24 14:46:01;;;;;;;35.88;22.02;;;6.70;75.90;;;;;;5065895;28;20045;-72
2022/01/24 14:48:27;;;;;;;32.70;21.08;;;6.80;76.10;;;;;;5052715;28;20044;-72
2022/01/24 14:50:53;;;;;;;40.80;22.73;;;6.70;76.20;;;;;;5052787;28;20048;-71
2022/01/24 14:53:19;;;;;;;45.58;24.08;;;6.80;76.10;;;;;;5049968;28;20052;-71
2022/01/24 14:55:45;;;;;;;38.45;23.83;;;6.70;76.10;;;;;;5053662;28;20041;-72
2022/01/24 14:58:14;;;;;;;37.13;22.55;;;6.70;76.00;;;;;;5049272;28;20490;-72
2022/01/24 15:00:39;;;;;;;36.58;23.42;;;6.70;76.30;;;;;;5050279;28;20175;-72